Time;durP1;ratioP1;P1;durP2;ratioP2;P2;SDS_P1;SDS_P2;PMS_P1;PMS_P2;Temp;Humidity;BMP_temperature;BMP_pressure;BME280_temperature;BME280_humidity;BME280_pressure;Samples;Min_cycle;Max_cycle;Signal;HPM_P1;HPM_P2
2022/04/09 00:00:31;;;;;;;;;;;4.90;99.90;;;;;;5079909;28;20410;-81
2022/04/09 00:02:57;;;;;;;;;;;4.90;99.90;;;;;;5084388;28;19939;-81
2022/04/09 00:05:22;;;;;;;;;;;4.80;1.00;;;;;;5082204;28;19922;-81
2022/04/09 00:07:48;;;;;;;;;;;4.80;1.00;;;;;;5092797;28;19920;-81
2022/04/09 00:10:14;;;;;;;;;;;4.80;1.00;;;;;;5087468;28;19952;-80
2022/04/09 00:12:44;;;;;;;;;;;4.80;43.60;;;;;;5082238;28;20552;-81
2022/04/09 00:15:09;;;;;;;;;;;4.80;99.90;;;;;;5078680;28;19943;-80
2022/04/09 00:17:36;;;;;;;;;;;4.80;99.90;;;;;;5082808;28;19920;-80
2022/04/09 00:20:01;;;;;;;;;;;4.80;99.90;;;;;;5083440;28;20283;-81
2022/04/09 00:22:27;;;;;;;;;;;4.80;99.90;;;;;;5084571;28;19916;-81
2022/04/09 00:24:52;;;;;;;;;;;4.70;99.90;;;;;;5084155;28;19912;-81
2022/04/09 00:27:18;;;;;;;;;;;4.70;99.90;;;;;;5080597;28;20372;-81
2022/04/09 00:29:43;;;;;;;;;;;4.70;99.90;;;;;;5081072;28;20368;-81
2022/04/09 00:32:09;;;;;;;;;;;4.70;99.90;;;;;;5079977;28;20057;-81
2022/04/09 00:34:34;;;;;;;;;;;4.70;1.00;;;;;;5083545;28;19963;-81
2022/04/09 00:37:00;;;;;;;;;;;4.70;1.00;;;;;;5083054;28;20367;-81
2022/04/09 00:39:25;;;;;;;;;;;4.70;1.00;;;;;;5086260;28;20328;-81
2022/04/09 00:41:51;;;;;;;;;;;4.70;1.00;;;;;;5084376;28;20410;-82
2022/04/09 00:44:17;;;;;;;;;;;4.70;1.00;;;;;;5079586;28;20053;-81
2022/04/09 00:46:43;;;;;;;;;;;4.70;1.00;;;;;;5082199;28;19948;-82
2022/04/09 00:49:09;;;;;;;;;;;4.70;1.00;;;;;;5079235;28;19932;-81
2022/04/09 00:51:36;;;;;;;;;;;4.70;1.00;;;;;;5081076;28;19919;-81
2022/04/09 00:54:03;;;;;;;;;;;4.70;1.00;;;;;;5079309;28;19912;-80
2022/04/09 00:56:28;;;;;;;;;;;4.60;1.00;;;;;;5081241;28;19923;-81
2022/04/09 00:58:55;;;;;;;;;;;4.60;1.00;;;;;;5080031;28;19908;-79
2022/04/09 01:01:26;;;;;;;;;;;4.60;1.00;;;;;;5082015;28;20311;-81
2022/04/09 01:03:52;;;;;;;;;;;4.60;1.00;;;;;;5088020;28;19924;-81
2022/04/09 01:06:18;;;;;;;;;;;4.60;1.00;;;;;;5077447;28;19959;-81
2022/04/09 01:08:44;;;;;;;;;;;4.60;1.00;;;;;;5078069;28;19909;-81
2022/04/09 01:11:11;;;;;;;;;;;4.50;1.00;;;;;;5077724;28;19959;-81
2022/04/09 01:13:36;;;;;;;;;;;4.60;1.00;;;;;;5078299;28;19938;-81
2022/04/09 01:16:02;;;;;;;;;;;4.60;1.00;;;;;;5076868;28;20329;-81
2022/04/09 01:18:29;;;;;;;;;;;4.60;1.00;;;;;;5081369;28;20520;-81
2022/04/09 01:20:58;;;;;;;;;;;4.60;1.00;;;;;;5078519;28;20026;-81
2022/04/09 01:23:24;;;;;;;;;;;4.60;1.00;;;;;;5079589;28;19917;-81
2022/04/09 01:25:50;;;;;;;;;;;4.60;1.00;;;;;;5080588;28;19920;-81
2022/04/09 01:28:16;;;;;;;;;;;4.60;1.00;;;;;;5086827;28;20013;-81
2022/04/09 01:30:41;;;;;;;;;;;4.60;1.00;;;;;;5079489;28;19920;-81
2022/04/09 01:33:07;;;;;;;;;;;4.60;1.00;;;;;;5079136;28;19916;-79
2022/04/09 01:35:32;;;;;;;;;;;4.60;1.00;;;;;;5078324;28;19912;-79
2022/04/09 01:37:58;;;;;;;;;;;4.60;1.00;;;;;;5082535;28;20399;-79
2022/04/09 01:40:23;;;;;;;;;;;4.50;1.00;;;;;;5077161;28;19939;-82
2022/04/09 01:42:49;;;;;;;;;;;4.60;6.50;;;;;;5082318;28;20015;-80
2022/04/09 01:45:14;;;;;;;;;;;4.60;6.40;;;;;;5083441;28;19927;-81
2022/04/09 01:47:42;;;;;;;;;;;4.70;1.00;;;;;;5079470;28;19912;-80
2022/04/09 01:50:09;;;;;;;;;;;4.80;1.00;;;;;;5079145;28;19912;-81
2022/04/09 01:52:34;;;;;;;;;;;4.90;99.90;;;;;;5080291;28;19947;-80
2022/04/09 01:55:00;;;;;;;;;;;4.90;99.90;;;;;;5082043;28;19912;-81
2022/04/09 01:57:25;;;;;;;;;;;4.90;22.40;;;;;;5080806;28;19926;-81
2022/04/09 01:59:51;;;;;;;;;;;4.90;18.30;;;;;;5083017;28;20383;-81
2022/04/09 02:02:16;;;;;;;;;;;5.00;1.00;;;;;;5077384;28;19931;-81
2022/04/09 02:04:42;;;;;;;;;;;5.00;1.00;;;;;;5081061;28;19934;-81
2022/04/09 02:07:07;;;;;;;;;;;5.00;99.90;;;;;;5088197;28;19912;-82
2022/04/09 02:09:33;;;;;;;;;;;5.00;99.90;;;;;;5083865;28;19916;-81
2022/04/09 02:11:59;;;;;;;;;;;4.90;99.90;;;;;;5084269;28;19917;-82
2022/04/09 02:14:25;;;;;;;;;;;4.80;1.00;;;;;;5079551;28;19912;-80
2022/04/09 02:16:50;;;;;;;;;;;4.80;1.00;;;;;;5088188;28;19916;-80
2022/04/09 02:19:17;;;;;;;;;;;4.70;1.00;;;;;;5082304;28;20392;-81
2022/04/09 02:21:42;;;;;;;;;;;4.70;1.00;;;;;;5083320;28;19975;-81
2022/04/09 02:24:09;;;;;;;;;;;4.60;99.90;;;;;;5084015;28;19937;-80
2022/04/09 02:26:34;;;;;;;;;;;4.60;99.90;;;;;;5085852;28;19975;-81
2022/04/09 02:29:00;;;;;;;;;;;4.50;99.90;;;;;;5084340;28;19912;-82
2022/04/09 02:31:25;;;;;;;;;;;4.50;1.00;;;;;;5083155;28;19919;-81
2022/04/09 02:33:51;;;;;;;;;;;4.50;1.00;;;;;;5091502;28;19999;-81
2022/04/09 02:36:16;;;;;;;;;;;4.50;1.00;;;;;;5089755;28;19973;-82
2022/04/09 02:38:42;;;;;;;;;;;4.40;1.00;;;;;;5092630;28;19956;-81
2022/04/09 02:41:09;;;;;;;;;;;4.40;1.00;;;;;;5085439;28;20292;-80
2022/04/09 02:43:37;;;;;;;;;;;4.30;1.00;;;;;;5083947;28;19917;-81
2022/04/09 02:46:02;;;;;;;;;;;4.30;1.00;;;;;;5082129;28;19920;-81
2022/04/09 02:48:28;;;;;;;;;;;4.30;34.80;;;;;;5081247;28;19924;-81
2022/04/09 02:50:54;;;;;;;;;;;4.30;98.30;;;;;;5084491;28;19924;-80
2022/04/09 02:53:19;;;;;;;;;;;4.30;99.90;;;;;;5087204;28;19920;-81
2022/04/09 02:55:45;;;;;;;;;;;4.30;99.90;;;;;;5084265;28;19939;-81
2022/04/09 02:58:10;;;;;;;;;;;4.30;99.90;;;;;;5084685;28;20352;-81
2022/04/09 03:00:36;;;;;;;;;;;4.30;99.90;;;;;;5084111;28;19926;-81
2022/04/09 03:03:01;;;;;;;;;;;4.30;99.90;;;;;;5083433;28;19920;-81
2022/04/09 03:05:27;;;;;;;;;;;4.30;99.90;;;;;;5083436;28;19913;-80
2022/04/09 03:07:52;;;;;;;;;;;4.30;99.90;;;;;;5083005;28;19938;-80
2022/04/09 03:10:18;;;;;;;;;;;4.30;99.90;;;;;;5081083;28;19920;-80
2022/04/09 03:12:43;;;;;;;;;;;4.30;99.90;;;;;;5082682;28;19912;-81
2022/04/09 03:15:09;;;;;;;;;;;4.30;99.90;;;;;;5082209;28;19959;-81
2022/04/09 03:17:35;;;;;;;;;;;4.30;99.90;;;;;;5087100;28;20352;-81
2022/04/09 03:20:00;;;;;;;;;;;4.40;99.90;;;;;;5086387;28;20275;-81
2022/04/09 03:22:27;;;;;;;;;;;4.40;99.90;;;;;;5084272;28;19916;-80
2022/04/09 03:24:56;;;;;;;;;;;4.40;99.90;;;;;;5085221;28;19928;-81
2022/04/09 03:27:21;;;;;;;;;;;4.50;99.90;;;;;;5081326;28;19956;-81
2022/04/09 03:29:46;;;;;;;;;;;4.50;99.90;;;;;;5083547;28;19916;-81
2022/04/09 03:32:12;;;;;;;;;;;4.50;99.90;;;;;;5086522;28;19998;-81
2022/04/09 03:34:38;;;;;;;;;;;4.40;99.90;;;;;;5080467;28;19908;-81
2022/04/09 03:37:03;;;;;;;;;;;4.40;99.90;;;;;;5083878;28;19912;-81
2022/04/09 03:39:29;;;;;;;;;;;4.40;99.90;;;;;;5082734;28;19921;-81
2022/04/09 03:41:55;;;;;;;;;;;4.30;99.90;;;;;;5081713;28;19994;-82
2022/04/09 03:44:20;;;;;;;;;;;4.30;99.90;;;;;;5081797;28;19920;-81
2022/04/09 03:46:46;;;;;;;;;;;4.20;99.90;;;;;;5082813;28;19948;-81
2022/04/09 03:49:11;;;;;;;;;;;4.20;99.90;;;;;;5082673;28;19938;-80
2022/04/09 03:51:37;;;;;;;;;;;4.20;99.90;;;;;;5083663;28;19920;-81
2022/04/09 03:54:02;;;;;;;;;;;4.20;99.90;;;;;;5086528;28;19983;-81
2022/04/09 03:56:28;;;;;;;;;;;4.20;99.90;;;;;;5080014;28;19916;-81
2022/04/09 03:58:56;;;;;;;;;;;4.10;99.90;;;;;;5084583;28;19967;-79
2022/04/09 04:01:24;;;;;;;;;;;4.10;99.90;;;;;;5084103;28;19966;-78
2022/04/09 04:03:50;;;;;;;;;;;4.10;99.90;;;;;;5083002;28;19970;-81
2022/04/09 04:06:16;;;;;;;;;;;4.10;99.90;;;;;;5083675;28;20379;-80
2022/04/09 04:08:41;;;;;;;;;;;4.00;99.90;;;;;;5082645;28;19920;-80
2022/04/09 04:11:07;;;;;;;;;;;4.10;99.90;;;;;;5083004;28;20027;-81
2022/04/09 04:13:35;;;;;;;;;;;4.10;99.90;;;;;;5080085;28;19956;-81
2022/04/09 04:16:03;;;;;;;;;;;4.20;99.90;;;;;;5084014;28;19912;-80
2022/04/09 04:18:28;;;;;;;;;;;4.20;99.90;;;;;;5083063;28;19920;-81
2022/04/09 04:20:54;;;;;;;;;;;4.20;99.90;;;;;;5083712;28;19923;-82
2022/04/09 04:23:20;;;;;;;;;;;4.20;99.90;;;;;;5082847;28;19916;-82
2022/04/09 04:25:45;;;;;;;;;;;4.20;99.90;;;;;;5081612;28;19913;-82
2022/04/09 04:28:11;;;;;;;;;;;4.20;99.90;;;;;;5085253;28;19973;-82
2022/04/09 04:30:36;;;;;;;;;;;4.20;99.90;;;;;;5082743;28;19919;-81
2022/04/09 04:33:02;;;;;;;;;;;4.20;99.90;;;;;;5080608;28;20383;-81
2022/04/09 04:35:27;;;;;;;;;;;4.20;99.90;;;;;;5081790;28;19916;-82
2022/04/09 04:37:54;;;;;;;;;;;4.20;99.90;;;;;;5081435;28;19936;-82
2022/04/09 04:40:19;;;;;;;;;;;4.10;99.90;;;;;;5084894;28;19912;-81
2022/04/09 04:42:45;;;;;;;;;;;4.10;99.90;;;;;;5082752;28;19956;-82
2022/04/09 04:45:11;;;;;;;;;;;4.00;99.90;;;;;;5082669;28;20282;-81
2022/04/09 04:47:44;;;;;;;;;;;4.00;99.90;;;;;;5084757;28;20015;-81
2022/04/09 04:50:10;;;;;;;;;;;4.00;99.90;;;;;;5081624;28;19912;-82
2022/04/09 04:52:35;;;;;;;;;;;4.00;1.00;;;;;;5080883;28;20457;-81
2022/04/09 04:55:00;;;;;;;;;;;4.00;1.00;;;;;;5090603;28;19919;-82
2022/04/09 04:57:26;;;;;;;;;;;4.00;1.00;;;;;;5080230;28;19916;-81
2022/04/09 04:59:51;;;;;;;;;;;4.00;1.00;;;;;;5080664;28;20042;-81
2022/04/09 05:02:17;;;;;;;;;;;4.00;1.00;;;;;;5083012;28;19943;-82
2022/04/09 05:04:42;;;;;;;;;;;4.00;1.00;;;;;;5079881;28;19973;-82
2022/04/09 05:07:08;;;;;;;;;;;4.10;1.00;;;;;;5087533;28;19916;-82
2022/04/09 05:09:35;;;;;;;;;;;4.10;1.00;;;;;;5090870;28;19912;-82
2022/04/09 05:12:00;;;;;;;;;;;4.10;1.00;;;;;;5085388;28;20369;-82
2022/04/09 05:14:26;;;;;;;;;;;4.20;1.00;;;;;;5083592;28;19920;-82
2022/04/09 05:16:52;;;;;;;;;;;4.20;99.90;;;;;;5080721;28;19919;-82
2022/04/09 05:19:17;;;;;;;;;;;4.30;99.90;;;;;;5085077;28;20363;-81
2022/04/09 05:21:45;;;;;;;;;;;4.40;99.90;;;;;;5077346;28;20311;-81
2022/04/09 05:24:10;;;;;;;;;;;4.50;99.90;;;;;;5085877;28;19920;-82
2022/04/09 05:26:36;;;;;;;;;;;4.60;99.90;;;;;;5079732;28;19912;-82
2022/04/09 05:29:01;;;;;;;;;;;4.70;1.00;;;;;;5081974;28;20015;-82
2022/04/09 05:31:30;;;;;;;;;;;4.80;1.00;;;;;;5083257;28;20334;-81
2022/04/09 05:33:55;;;;;;;;;;;4.90;99.90;;;;;;5086014;28;19973;-82
2022/04/09 05:36:21;;;;;;;;;;;5.10;99.90;;;;;;5083473;28;20300;-83
2022/04/09 05:38:46;;;;;;;;;;;5.30;1.00;;;;;;5082649;28;19912;-83
2022/04/09 05:41:12;;;;;;;;;;;5.60;37.50;;;;;;5081779;28;20295;-84
2022/04/09 05:43:39;;;;;;;;;;;5.90;1.00;;;;;;5079920;28;19920;-85
2022/04/09 05:46:04;;;;;;;;;;;6.80;1.00;;;;;;5085847;28;19966;-83
2022/04/09 05:48:30;;;;;;;;;;;9.70;1.00;;;;;;5083248;28;21172;-83
2022/04/09 05:50:55;;;;;;;;;;;12.70;1.00;;;;;;5087120;28;19993;-84
2022/04/09 05:53:21;;;;;;;;;;;15.10;99.90;;;;;;5082583;28;20298;-84
2022/04/09 05:55:46;;;;;;;;;;;16.90;99.90;;;;;;5087685;28;19978;-84
2022/04/09 05:58:12;;;;;;;;;;;18.50;99.90;;;;;;5091068;28;19912;-85
2022/04/09 06:00:37;;;;;;;;;;;19.50;99.90;;;;;;5088254;28;19912;-84
2022/04/09 06:03:03;;;;;;;;;;;20.60;99.90;;;;;;5085113;28;19916;-85
2022/04/09 06:05:29;;;;;;;;;;;21.50;99.90;;;;;;5084366;28;19920;-85
2022/04/09 06:07:54;;;;;;;;;;;22.80;99.90;;;;;;5083121;28;20368;-85
2022/04/09 06:10:20;;;;;;;;;;;23.90;99.90;;;;;;5084459;28;19912;-85
2022/04/09 06:12:45;;;;;;;;;;;24.70;99.90;;;;;;5087080;28;19995;-85
2022/04/09 06:15:11;;;;;;;;;;;25.60;99.90;;;;;;5086590;28;20002;-86
2022/04/09 06:17:37;;;;;;;;;;;26.30;99.90;;;;;;5079418;28;19920;-82
2022/04/09 06:20:04;;;;;;;;;;;26.20;99.90;;;;;;5084940;28;19912;-82
2022/04/09 06:22:30;;;;;;;;;;;26.90;99.90;;;;;;5082304;28;19932;-82
2022/04/09 06:24:55;;;;;;;;;;;26.50;99.90;;;;;;5085295;28;19978;-82
2022/04/09 06:27:21;;;;;;;;;;;26.90;99.90;;;;;;5082751;28;19999;-83
2022/04/09 06:29:46;;;;;;;;;;;26.70;99.90;;;;;;5085635;28;20493;-82
2022/04/09 06:32:12;;;;;;;;;;;27.30;99.90;;;;;;5087052;28;19912;-82
2022/04/09 06:34:37;;;;;;;;;;;28.10;99.90;;;;;;5082338;28;19912;-82
2022/04/09 06:37:03;;;;;;;;;;;26.80;99.90;;;;;;5085448;28;20401;-81
2022/04/09 06:39:28;;;;;;;;;;;22.90;99.90;;;;;;5081585;28;21258;-82
2022/04/09 06:41:54;;;;;;;;;;;19.80;99.90;;;;;;5084204;28;19913;-84
2022/04/09 06:44:19;;;;;;;;;;;20.40;99.90;;;;;;5083609;28;19931;-84
2022/04/09 06:46:46;;;;;;;;;;;23.70;99.90;;;;;;5087496;28;19994;-82
2022/04/09 06:49:15;;;;;;;;;;;25.50;99.90;;;;;;5085591;28;19971;-82
2022/04/09 06:51:41;;;;;;;;;;;27.00;99.90;;;;;;5088584;28;19997;-85
2022/04/09 06:54:07;;;;;;;;;;;26.10;99.90;;;;;;5087344;28;19934;-84
2022/04/09 06:56:32;;;;;;;;;;;23.50;99.90;;;;;;5090560;28;20219;-84
2022/04/09 06:58:58;;;;;;;;;;;24.40;99.90;;;;;;5088666;28;19976;-85
2022/04/09 07:01:25;;;;;;;;;;;25.70;99.90;;;;;;5090131;28;19912;-81
2022/04/09 07:03:51;;;;;;;;;;;27.80;99.90;;;;;;5090583;28;19984;-82
2022/04/09 07:06:17;;;;;;;;;;;29.70;99.90;;;;;;5094727;28;20261;-82
2022/04/09 07:08:43;;;;;;;;;;;30.80;99.90;;;;;;5092398;28;19908;-83
2022/04/09 07:11:08;;;;;;;;;;;28.80;99.90;;;;;;5092987;28;20489;-83
2022/04/09 07:13:34;;;;;;;;;;;27.90;99.90;;;;;;5088243;28;19952;-82
2022/04/09 07:15:59;;;;;;;;;;;24.20;99.90;;;;;;5091501;28;19916;-83
2022/04/09 07:18:24;;;;;;;;;;;25.00;99.90;;;;;;5088707;28;19908;-84
2022/04/09 07:20:52;;;;;;;;;;;27.50;99.90;;;;;;5091416;28;20279;-82
2022/04/09 07:23:18;;;;;;;;;;;28.90;99.90;;;;;;5092706;28;19921;-83
2022/04/09 07:25:43;;;;;;;;;;;30.30;99.90;;;;;;5089308;28;19913;-83
2022/04/09 07:28:09;;;;;;;;;;;30.60;99.90;;;;;;5092770;28;20061;-82
2022/04/09 07:30:35;;;;;;;;;;;30.90;99.90;;;;;;5087688;28;19975;-84
2022/04/09 07:33:01;;;;;;;;;;;31.50;99.90;;;;;;5091858;28;19924;-83
2022/04/09 07:35:26;;;;;;;;;;;32.10;99.90;;;;;;5089589;28;19908;-84
2022/04/09 07:37:56;;;;;;;;;;;32.30;99.90;;;;;;5090375;28;20003;-84
2022/04/09 07:40:24;;;;;;;;;;;32.20;99.90;;;;;;5093979;28;19913;-83
2022/04/09 07:42:50;;;;;;;;;;;32.10;99.90;;;;;;5085091;28;19991;-84
2022/04/09 07:45:16;;;;;;;;;;;32.80;99.90;;;;;;5092900;28;19916;-83
2022/04/09 07:47:42;;;;;;;;;;;33.70;99.90;;;;;;5090864;28;19913;-84
2022/04/09 07:50:10;;;;;;;;;;;32.70;99.90;;;;;;5092142;28;19951;-83
2022/04/09 07:52:39;;;;;;;;;;;33.30;99.90;;;;;;5091651;28;19920;-83
2022/04/09 07:55:07;;;;;;;;;;;33.00;99.90;;;;;;5091381;28;19920;-83
2022/04/09 07:57:33;;;;;;;;;;;32.40;99.90;;;;;;5094134;28;19920;-84
2022/04/09 07:59:58;;;;;;;;;;;32.90;99.90;;;;;;5093471;28;19912;-83
2022/04/09 08:02:24;;;;;;;;;;;31.60;99.90;;;;;;5093429;28;19912;-82
2022/04/09 08:04:50;;;;;;;;;;;28.80;99.90;;;;;;5089660;28;19919;-84
2022/04/09 08:07:15;;;;;;;;;;;26.90;99.90;;;;;;5091765;28;19916;-83
2022/04/09 08:09:42;;;;;;;;;;;27.50;99.90;;;;;;5088575;28;19913;-85
2022/04/09 08:12:08;;;;;;;;;;;28.00;99.90;;;;;;5089572;28;20390;-84
2022/04/09 08:14:33;;;;;;;;;;;26.20;99.90;;;;;;5086263;28;19916;-83
2022/04/09 08:16:59;;;;;;;;;;;26.30;99.90;;;;;;5090035;28;19912;-84
2022/04/09 08:19:25;;;;;;;;;;;26.40;99.90;;;;;;5091522;28;19919;-83
2022/04/09 08:21:51;;;;;;;;;;;24.90;99.90;;;;;;5090999;28;19913;-83
2022/04/09 08:24:17;;;;;;;;;;;23.30;99.90;;;;;;5090347;28;19920;-83
2022/04/09 08:26:43;;;;;;;;;;;23.00;99.90;;;;;;5088370;28;19917;-84
2022/04/09 08:29:09;;;;;;;;;;;24.30;99.90;;;;;;5086256;28;19916;-83
2022/04/09 08:31:35;;;;;;;;;;;24.00;99.90;;;;;;5084405;28;19948;-83
2022/04/09 08:34:01;;;;;;;;;;;26.00;99.90;;;;;;5093469;28;19923;-82
2022/04/09 08:36:26;;;;;;;;;;;25.20;99.90;;;;;;5090170;28;20380;-83
2022/04/09 08:38:52;;;;;;;;;;;24.90;99.90;;;;;;5084143;28;20296;-83
2022/04/09 08:41:18;;;;;;;;;;;24.20;99.90;;;;;;5100559;28;19916;-82
2022/04/09 08:43:44;;;;;;;;;;;24.90;99.90;;;;;;5089640;28;19916;-83
2022/04/09 08:46:09;;;;;;;;;;;26.50;99.90;;;;;;5093949;28;19927;-83
2022/04/09 08:48:36;;;;;;;;;;;26.80;99.90;;;;;;5092067;28;19916;-84
2022/04/09 08:51:02;;;;;;;;;;;27.00;99.90;;;;;;5095095;28;19916;-84
2022/04/09 08:53:28;;;;;;;;;;;28.20;99.90;;;;;;5097645;28;19927;-84
2022/04/09 08:55:53;;;;;;;;;;;28.80;99.90;;;;;;5097084;28;20007;-84
2022/04/09 08:58:19;;;;;;;;;;;28.50;99.90;;;;;;5096682;28;19912;-82
2022/04/09 09:00:45;;;;;;;;;;;28.00;99.90;;;;;;5093183;28;19912;-84
2022/04/09 09:03:14;;;;;;;;;;;27.20;99.90;;;;;;5093548;28;19912;-83
2022/04/09 09:05:41;;;;;;;;;;;26.20;99.90;;;;;;5093173;28;20602;-84
2022/04/09 09:08:07;;;;;;;;;;;27.20;99.90;;;;;;5089275;28;19999;-84
2022/04/09 09:10:34;;;;;;;;;;;28.30;99.90;;;;;;5089380;28;19912;-84
2022/04/09 09:13:05;;;;;;;;;;;29.30;99.90;;;;;;5087226;28;19916;-84
2022/04/09 09:15:43;;;;;;;;;;;30.50;99.90;;;;;;5088565;28;20003;-84
2022/04/09 09:18:17;;;;;;;;;;;31.20;99.90;;;;;;5089857;28;19912;-85
2022/04/09 09:20:47;;;;;;;;;;;31.20;99.90;;;;;;5090134;28;19920;-85
2022/04/09 09:23:19;;;;;;;;;;;27.80;99.90;;;;;;5093800;28;19979;-83
2022/04/09 09:25:48;;;;;;;;;;;25.60;99.90;;;;;;5093408;28;19920;-83
2022/04/09 09:28:20;;;;;;;;;;;25.20;99.90;;;;;;5095939;28;19919;-85
2022/04/09 09:30:48;;;;;;;;;;;26.10;99.90;;;;;;5087742;28;19950;-84
2022/04/09 09:33:13;;;;;;;;;;;27.60;99.90;;;;;;5097077;28;19916;-84
2022/04/09 09:35:48;;;;;;;;;;;26.50;99.90;;;;;;5091876;28;19920;-84
2022/04/09 09:38:18;;;;;;;;;;;25.60;99.90;;;;;;5096605;28;20390;-85
2022/04/09 09:40:43;;;;;;;;;;;25.70;99.90;;;;;;5087634;28;19913;-84
2022/04/09 09:43:15;;;;;;;;;;;22.90;99.90;;;;;;5088274;28;20364;-84
2022/04/09 09:45:41;;;;;;;;;;;20.40;99.90;;;;;;5091448;28;19920;-84
2022/04/09 09:48:17;;;;;;;;;;;18.80;99.90;;;;;;5092861;28;19918;-84
2022/04/09 09:50:43;;;;;;;;;;;20.00;99.90;;;;;;5091096;28;19979;-82
2022/04/09 09:53:08;;;;;;;;;;;19.30;99.90;;;;;;5090979;28;19950;-83
2022/04/09 09:55:44;;;;;;;;;;;20.20;99.90;;;;;;5091745;28;20295;-83
2022/04/09 09:58:13;;;;;;;;;;;22.40;99.90;;;;;;5092315;28;19912;-84
2022/04/09 10:00:42;;;;;;;;;;;24.40;99.90;;;;;;5090924;28;19939;-82
2022/04/09 10:03:09;;;;;;;;;;;24.80;99.90;;;;;;5086411;28;19916;-84
2022/04/09 10:05:37;;;;;;;;;;;25.40;99.90;;;;;;5090575;28;19916;-84
2022/04/09 10:08:03;;;;;;;;;;;25.00;99.90;;;;;;5092742;28;19920;-84
2022/04/09 10:10:29;;;;;;;;;;;23.80;99.90;;;;;;5088636;28;19935;-83
2022/04/09 10:12:55;;;;;;;;;;;21.80;99.90;;;;;;5093368;28;19979;-83
2022/04/09 10:15:25;;;;;;;;;;;21.80;99.90;;;;;;5085674;28;19920;-83
2022/04/09 10:17:53;;;;;;;;;;;21.40;99.90;;;;;;5091749;28;19948;-84
2022/04/09 10:20:19;;;;;;;;;;;23.20;99.90;;;;;;5091112;28;19938;-84
2022/04/09 10:22:47;;;;;;;;;;;24.50;99.90;;;;;;5091211;28;19913;-83
2022/04/09 10:25:17;;;;;;;;;;;23.40;99.90;;;;;;5089690;28;19980;-82
2022/04/09 10:27:47;;;;;;;;;;;20.90;99.90;;;;;;5088735;28;20810;-83
2022/04/09 10:30:14;;;;;;;;;;;21.40;99.90;;;;;;5096690;28;19973;-83
2022/04/09 10:32:39;;;;;;;;;;;23.20;99.90;;;;;;5093084;28;19920;-84
2022/04/09 10:35:21;;;;;;;;;;;24.80;99.90;;;;;;5095825;28;19916;-84
2022/04/09 10:38:05;;;;;;;;;;;25.60;99.90;;;;;;5091681;28;19916;-83
2022/04/09 10:40:31;;;;;;;;;;;26.50;99.90;;;;;;5093164;28;19912;-84
2022/04/09 10:42:56;;;;;;;;;;;26.90;99.90;;;;;;5088791;28;19924;-84
2022/04/09 10:45:22;;;;;;;;;;;26.40;99.90;;;;;;5099784;28;19916;-84
2022/04/09 10:48:13;;;;;;;;;;;26.80;99.90;;;;;;5092749;28;19955;-84
2022/04/09 10:50:57;;;;;;;;;;;27.10;99.90;;;;;;5094740;28;19912;-84
2022/04/09 10:53:24;;;;;;;;;;;28.20;99.90;;;;;;5093462;28;19916;-84
2022/04/09 10:56:08;;;;;;;;;;;26.20;99.90;;;;;;5094228;28;19919;-83
2022/04/09 10:58:54;;;;;;;;;;;22.50;99.90;;;;;;5089767;28;19916;-82
2022/04/09 11:01:52;;;;;;;;;;;17.20;99.90;;;;;;5090471;28;19912;-83
2022/04/09 11:07:08;;;;;;;;;;;14.20;99.90;;;;;;5092839;28;19970;-82
2022/04/09 11:09:42;;;;;;;;;;;13.60;99.90;;;;;;5090378;28;20421;-81
2022/04/09 11:12:08;;;;;;;;;;;14.10;99.90;;;;;;5104950;28;19957;-83
2022/04/09 11:14:50;;;;;;;;;;;17.10;99.90;;;;;;5092388;28;20387;-83
2022/04/09 11:17:19;;;;;;;;;;;16.20;99.90;;;;;;5086245;28;19934;-83
2022/04/09 11:19:45;;;;;;;;;;;14.30;99.90;;;;;;5091348;28;19942;-82
2022/04/09 11:22:11;;;;;;;;;;;13.40;99.90;;;;;;5099663;28;19948;-83
2022/04/09 11:24:37;;;;;;;;;;;13.30;99.90;;;;;;5092226;28;19913;-83
2022/04/09 11:27:02;;;;;;;;;;;14.70;99.90;;;;;;5091661;28;19983;-83
2022/04/09 11:29:32;;;;;;;;;;;17.20;99.90;;;;;;5092758;28;19944;-83
2022/04/09 11:31:58;;;;;;;;;;;17.10;99.90;;;;;;5092500;28;19969;-82
2022/04/09 11:34:25;;;;;;;;;;;16.20;99.90;;;;;;5091334;28;19975;-83
2022/04/09 11:36:52;;;;;;;;;;;15.60;99.90;;;;;;5090229;28;19913;-83
2022/04/09 11:39:17;;;;;;;;;;;16.50;99.90;;;;;;5094303;28;21112;-83
2022/04/09 11:41:47;;;;;;;;;;;18.00;99.90;;;;;;5090513;28;19923;-84
2022/04/09 11:44:33;;;;;;;;;;;19.60;99.90;;;;;;5091309;28;19980;-83
2022/04/09 11:47:11;;;;;;;;;;;20.60;99.90;;;;;;5089733;28;20273;-83
2022/04/09 11:49:37;;;;;;;;;;;21.60;99.90;;;;;;5090304;28;19999;-83
2022/04/09 11:52:04;;;;;;;;;;;22.10;99.90;;;;;;5088680;28;20378;-84
2022/04/09 11:54:30;;;;;;;;;;;22.40;99.90;;;;;;5095879;28;19919;-84
2022/04/09 11:56:55;;;;;;;;;;;22.90;99.90;;;;;;5097240;28;19935;-84
2022/04/09 11:59:22;;;;;;;;;;;23.70;99.90;;;;;;5090846;28;19927;-84
2022/04/09 12:01:47;;;;;;;;;;;23.70;99.90;;;;;;5091383;28;20018;-85
2022/04/09 12:04:14;;;;;;;;;;;23.00;99.90;;;;;;5089333;28;19959;-83
2022/04/09 12:06:39;;;;;;;;;;;21.20;99.90;;;;;;5091624;28;20382;-83
2022/04/09 12:09:05;;;;;;;;;;;19.60;99.90;;;;;;5090809;28;19908;-83
2022/04/09 12:11:30;;;;;;;;;;;20.00;99.90;;;;;;5084603;28;20280;-82
2022/04/09 12:14:07;;;;;;;;;;;21.10;99.90;;;;;;5092227;28;19952;-85
2022/04/09 12:16:36;;;;;;;;;;;21.80;99.90;;;;;;5090780;28;20002;-83
2022/04/09 12:19:03;;;;;;;;;;;20.40;99.90;;;;;;5087833;28;20303;-83
2022/04/09 12:21:31;;;;;;;;;;;19.80;99.90;;;;;;5088306;28;20030;-84
2022/04/09 12:24:02;;;;;;;;;;;21.10;99.90;;;;;;5088933;28;20266;-84
2022/04/09 12:26:28;;;;;;;;;;;22.10;99.90;;;;;;5090451;28;19922;-84
2022/04/09 12:29:12;;;;;;;;;;;20.70;99.90;;;;;;5094127;28;19916;-84
2022/04/09 12:31:42;;;;;;;;;;;19.40;99.90;;;;;;5089868;28;19964;-83
2022/04/09 12:34:07;;;;;;;;;;;18.30;99.90;;;;;;5089900;28;20175;-83
2022/04/09 12:36:33;;;;;;;;;;;17.00;99.90;;;;;;5086035;28;19912;-83
2022/04/09 12:39:00;;;;;;;;;;;16.10;99.90;;;;;;5089595;28;19908;-84
2022/04/09 12:41:26;;;;;;;;;;;15.80;99.90;;;;;;5083430;28;19908;-83
2022/04/09 12:43:54;;;;;;;;;;;15.50;99.90;;;;;;5080273;28;20402;-83
2022/04/09 12:46:20;;;;;;;;;;;15.90;99.90;;;;;;5084415;28;19916;-83
2022/04/09 12:48:50;;;;;;;;;;;17.00;99.90;;;;;;5082657;28;19908;-84
2022/04/09 12:51:23;;;;;;;;;;;17.90;99.90;;;;;;5095041;28;20371;-83
2022/04/09 12:53:49;;;;;;;;;;;18.50;99.90;;;;;;5093094;28;19919;-83
2022/04/09 12:56:15;;;;;;;;;;;18.80;99.90;;;;;;5091119;28;19913;-84
2022/04/09 12:58:40;;;;;;;;;;;18.40;99.90;;;;;;5090949;28;19913;-84
2022/04/09 13:01:07;;;;;;;;;;;18.80;99.90;;;;;;5087518;28;20341;-84
2022/04/09 13:03:32;;;;;;;;;;;19.30;99.90;;;;;;5085657;28;19912;-83
2022/04/09 13:05:58;;;;;;;;;;;18.10;99.90;;;;;;5089549;28;19956;-83
2022/04/09 13:08:24;;;;;;;;;;;18.20;99.90;;;;;;5086408;28;20423;-84
2022/04/09 13:10:50;;;;;;;;;;;18.30;99.90;;;;;;5087894;28;19919;-84
2022/04/09 13:13:18;;;;;;;;;;;18.30;99.90;;;;;;5088979;28;19916;-84
2022/04/09 13:15:44;;;;;;;;;;;17.90;99.90;;;;;;5086903;28;19913;-83
2022/04/09 13:18:10;;;;;;;;;;;17.60;99.90;;;;;;5088040;28;19959;-83
2022/04/09 13:20:36;;;;;;;;;;;17.60;99.90;;;;;;5082230;28;19920;-83
2022/04/09 13:23:02;;;;;;;;;;;17.50;99.90;;;;;;5080475;28;19923;-82
2022/04/09 13:25:27;;;;;;;;;;;17.90;99.90;;;;;;5086768;28;19931;-83
2022/04/09 13:27:54;;;;;;;;;;;17.90;99.90;;;;;;5081512;28;19912;-83
2022/04/09 13:30:22;;;;;;;;;;;17.50;99.90;;;;;;5088982;28;20067;-84
2022/04/09 13:32:48;;;;;;;;;;;17.00;99.90;;;;;;5083826;28;19920;-83
2022/04/09 13:35:15;;;;;;;;;;;17.10;99.90;;;;;;5081161;28;19924;-83
2022/04/09 13:37:40;;;;;;;;;;;16.90;99.90;;;;;;5087422;28;19912;-83
2022/04/09 13:40:06;;;;;;;;;;;16.50;99.90;;;;;;5085873;28;19961;-83
2022/04/09 13:42:32;;;;;;;;;;;16.30;99.90;;;;;;5084723;28;19916;-83
2022/04/09 13:44:58;;;;;;;;;;;16.60;99.90;;;;;;5082670;28;19924;-84
2022/04/09 13:47:24;;;;;;;;;;;16.90;99.90;;;;;;5088298;28;19916;-83
2022/04/09 13:49:49;;;;;;;;;;;17.20;99.90;;;;;;5093263;28;19912;-83
2022/04/09 13:52:15;;;;;;;;;;;17.30;99.90;;;;;;5087101;28;20372;-83
2022/04/09 13:54:40;;;;;;;;;;;17.20;99.90;;;;;;5086251;28;20540;-83
2022/04/09 13:57:06;;;;;;;;;;;17.70;99.90;;;;;;5088632;28;19912;-83
2022/04/09 13:59:31;;;;;;;;;;;17.70;99.90;;;;;;5087534;28;19916;-83
2022/04/09 14:01:57;;;;;;;;;;;17.10;99.90;;;;;;5090789;28;19923;-82
2022/04/09 14:04:22;;;;;;;;;;;16.40;99.90;;;;;;5084949;28;19923;-83
2022/04/09 14:06:48;;;;;;;;;;;15.90;99.90;;;;;;5090648;28;19967;-83
2022/04/09 14:09:13;;;;;;;;;;;16.30;99.90;;;;;;5089020;28;19920;-83
2022/04/09 14:11:39;;;;;;;;;;;16.20;99.90;;;;;;5088393;28;19920;-83
2022/04/09 14:14:04;;;;;;;;;;;16.70;99.90;;;;;;5088745;28;19924;-83
2022/04/09 14:16:30;;;;;;;;;;;16.80;99.90;;;;;;5089040;28;19946;-83
2022/04/09 14:18:56;;;;;;;;;;;17.00;99.90;;;;;;5094376;28;19913;-83
2022/04/09 14:21:21;;;;;;;;;;;16.90;99.90;;;;;;5090813;28;20330;-83
2022/04/09 14:23:47;;;;;;;;;;;16.70;99.90;;;;;;5092103;28;19936;-84